Time,TemperatureF,DewpointF,PressureIn,WindDirection,WindDirectionDegrees,WindSpeedMPH,WindSpeedGustMPH,Humidity,HourlyPrecipIn,Conditions,Clouds,dailyrainin,SolarRadiationWatts/m^2,SoftwareType,DateUTC
2013-06-07 00:02:00,59.3,47.5,30.64,ESE,116,0.0,3.0,65,0.00,,,0.00,0.00,VWS V14.00,2013-06-07 06:02:00,
2013-06-07 00:07:00,59.0,46.8,30.62,ESE,116,0.0,0.0,64,0.00,,,0.00,0.00,VWS V14.00,2013-06-07 06:07:00,
2013-06-07 00:12:00,58.7,47.0,30.62,ESE,116,0.0,3.0,65,0.00,,,0.00,0.00,VWS V14.00,2013-06-07 06:12:00,
2013-06-07 00:17:00,58.2,46.5,30.63,ESE,116,0.0,3.0,65,0.00,,,0.00,0.00,VWS V14.00,2013-06-07 06:17:00,
2013-06-07 00:22:00,58.0,46.3,30.63,ESE,115,0.0,0.0,65,0.00,,,0.00,0.00,VWS V14.00,2013-06-07 06:22:00,
2013-06-07 00:27:00,57.7,46.4,30.63,ESE,116,0.0,2.0,66,0.00,,,0.00,0.00,VWS V14.00,2013-06-07 06:27:00,
2013-06-07 00:32:00,57.3,45.7,30.64,ESE,115,0.0,2.0,65,0.00,,,0.00,0.00,VWS V14.00,2013-06-07 06:32:00,
2013-06-07 00:37:00,57.3,45.2,30.64,ESE,116,0.0,0.0,64,0.00,,,0.00,0.00,VWS V14.00,2013-06-07 06:37:00,
2013-06-07 00:42:00,57.3,45.7,30.64,ESE,116,0.0,1.0,65,0.00,,,0.00,0.00,VWS V14.00,2013-06-07 06:42:00,
2013-06-07 00:47:00,57.4,45.3,30.64,ESE,116,2.0,3.0,64,0.00,,,0.00,0.00,VWS V14.00,2013-06-07 06:47:00,
2013-06-07 00:52:00,57.5,45.4,30.64,ESE,117,0.0,0.0,64,0.00,,,0.00,0.00,VWS V14.00,2013-06-07 06:52:00,
2013-06-07 00:57:00,57.5,45.0,30.64,ESE,117,3.0,3.0,63,0.00,,,0.00,0.00,VWS V14.00,2013-06-07 06:57:00,
2013-06-07 01:02:00,57.8,45.3,30.64,ESE,117,0.0,3.0,63,0.00,,,0.00,0.00,VWS V14.00,2013-06-07 07:02:00,
2013-06-07 01:07:00,58.0,45.9,30.62,ESE,117,0.0,0.0,64,0.00,,,0.00,0.00,VWS V14.00,2013-06-07 07:07:00,
2013-06-07 01:12:00,57.9,46.6,30.62,ESE,117,0.0,0.0,66,0.00,,,0.00,0.00,VWS V14.00,2013-06-07 07:12:00,
2013-06-07 01:17:00,57.7,45.6,30.61,ESE,117,0.0,1.0,64,0.00,,,0.00,0.00,VWS V14.00,2013-06-07 07:17:00,
2013-06-07 01:22:00,57.5,45.4,30.61,ESE,117,0.0,0.0,64,0.00,,,0.00,0.00,VWS V14.00,2013-06-07 07:22:00,
2013-06-07 01:27:00,57.2,45.2,30.61,ESE,117,0.0,1.0,64,0.00,,,0.00,0.00,VWS V14.00,2013-06-07 07:27:00,
2013-06-07 01:32:00,57.1,44.6,30.61,ESE,117,2.0,3.0,63,0.00,,,0.00,0.00,VWS V14.00,2013-06-07 07:32:00,
2013-06-07 01:37:00,57.1,45.0,30.61,ESE,117,0.0,0.0,64,0.00,,,0.00,0.00,VWS V14.00,2013-06-07 07:37:00,
2013-06-07 01:42:00,57.0,45.0,30.61,ESE,117,2.0,2.0,64,0.00,,,0.00,0.00,VWS V14.00,2013-06-07 07:42:00,
2013-06-07 01:47:00,57.0,45.4,30.61,ESE,117,3.0,3.0,65,0.00,,,0.00,0.00,VWS V14.00,2013-06-07 07:47:00,
2013-06-07 01:52:00,56.9,45.3,30.60,ESE,117,0.0,0.0,65,0.00,,,0.00,0.00,VWS V14.00,2013-06-07 07:52:00,
2013-06-07 01:57:00,57.0,45.0,30.61,ESE,117,0.0,4.0,64,0.00,,,0.00,0.00,VWS V14.00,2013-06-07 07:57:00,
2013-06-07 02:02:00,57.1,44.6,30.61,ESE,117,0.0,4.0,63,0.00,,,0.00,0.00,VWS V14.00,2013-06-07 08:02:00,
2013-06-07 02:07:00,57.4,45.8,30.59,ESE,117,0.0,0.0,65,0.00,,,0.00,0.00,VWS V14.00,2013-06-07 08:07:00,
2013-06-07 02:12:00,57.4,44.9,30.60,ESE,117,0.0,0.0,63,0.00,,,0.00,0.00,VWS V14.00,2013-06-07 08:12:00,
2013-06-07 02:17:00,57.4,44.9,30.59,ESE,117,0.0,3.0,63,0.00,,,0.00,0.00,VWS V14.00,2013-06-07 08:17:00,
2013-06-07 02:22:00,57.5,45.0,30.59,ESE,117,0.0,0.0,63,0.00,,,0.00,0.00,VWS V14.00,2013-06-07 08:22:00,
2013-06-07 02:27:00,57.3,44.8,30.60,ESE,117,2.0,3.0,63,0.00,,,0.00,0.00,VWS V14.00,2013-06-07 08:27:00,
2013-06-07 02:32:00,57.4,44.9,30.59,ESE,117,2.0,4.0,63,0.00,,,0.00,0.00,VWS V14.00,2013-06-07 08:32:00,
2013-06-07 02:37:00,57.4,45.8,30.59,ESE,117,0.0,0.0,65,0.00,,,0.00,0.00,VWS V14.00,2013-06-07 08:37:00,
2013-06-07 02:42:00,57.0,45.8,30.60,ESE,117,0.0,0.0,66,0.00,,,0.00,0.00,VWS V14.00,2013-06-07 08:42:00,
2013-06-07 02:47:00,56.7,45.9,30.60,ESE,117,0.0,1.0,67,0.00,,,0.00,0.00,VWS V14.00,2013-06-07 08:47:00,
2013-06-07 02:52:00,56.5,45.3,30.60,ESE,117,0.0,0.0,66,0.00,,,0.00,0.00,VWS V14.00,2013-06-07 08:52:00,
2013-06-07 02:57:00,56.4,44.8,30.60,ESE,117,2.0,4.0,65,0.00,,,0.00,0.00,VWS V14.00,2013-06-07 08:57:00,
2013-06-07 03:02:00,56.4,45.6,30.61,ESE,117,0.0,4.0,67,0.00,,,0.00,0.00,VWS V14.00,2013-06-07 09:02:00,
2013-06-07 03:07:00,56.2,45.8,30.60,ESE,117,0.0,1.0,68,0.00,,,0.00,0.00,VWS V14.00,2013-06-07 09:07:00,
2013-06-07 03:12:00,55.8,45.4,30.60,ESE,117,0.0,1.0,68,0.00,,,0.00,0.00,VWS V14.00,2013-06-07 09:12:00,
2013-06-07 03:17:00,55.5,44.3,30.60,ESE,117,2.0,3.0,66,0.00,,,0.00,0.00,VWS V14.00,2013-06-07 09:17:00,
2013-06-07 03:22:00,55.4,45.4,30.60,ESE,117,0.0,0.0,69,0.00,,,0.00,0.00,VWS V14.00,2013-06-07 09:22:00,
2013-06-07 03:27:00,55.2,45.6,30.60,ESE,117,0.0,0.0,70,0.00,,,0.00,0.00,VWS V14.00,2013-06-07 09:27:00,
2013-06-07 03:32:00,55.0,45.4,30.60,ESE,117,0.0,0.0,70,0.00,,,0.00,0.00,VWS V14.00,2013-06-07 09:32:00,
2013-06-07 03:37:00,54.8,45.2,30.60,ESE,117,0.0,0.0,70,0.00,,,0.00,0.00,VWS V14.00,2013-06-07 09:37:00,
2013-06-07 03:42:00,54.7,44.4,30.60,ESE,117,0.0,0.0,68,0.00,,,0.00,0.00,VWS V14.00,2013-06-07 09:42:00,
2013-06-07 03:47:00,54.7,44.4,30.60,ESE,117,0.0,2.0,68,0.00,,,0.00,0.00,VWS V14.00,2013-06-07 09:47:00,
2013-06-07 03:52:00,54.8,44.8,30.59,ESE,117,0.0,0.0,69,0.00,,,0.00,0.00,VWS V14.00,2013-06-07 09:52:00,
2013-06-07 03:57:00,54.7,45.1,30.59,ESE,117,0.0,0.0,70,0.00,,,0.00,0.00,VWS V14.00,2013-06-07 09:57:00,
2013-06-07 04:02:00,54.5,44.2,30.59,ESE,117,0.0,2.0,68,0.00,,,0.00,0.00,VWS V14.00,2013-06-07 10:02:00,
2013-06-07 04:07:00,54.7,44.0,30.59,ESE,117,0.0,0.0,67,0.00,,,0.00,0.00,VWS V14.00,2013-06-07 10:07:00,
2013-06-07 04:12:00,54.9,44.2,30.60,ESE,117,0.0,1.0,67,0.00,,,0.00,0.00,VWS V14.00,2013-06-07 10:12:00,
2013-06-07 04:17:00,55.1,44.7,30.59,ESE,117,0.0,1.0,68,0.00,,,0.00,0.00,VWS V14.00,2013-06-07 10:17:00,
2013-06-07 04:22:00,55.2,44.5,30.60,ESE,117,0.0,1.0,67,0.00,,,0.00,0.00,VWS V14.00,2013-06-07 10:22:00,
2013-06-07 04:27:00,55.4,44.2,30.60,ESE,117,3.0,4.0,66,0.00,,,0.00,0.00,VWS V14.00,2013-06-07 10:27:00,
2013-06-07 04:32:00,55.6,44.4,30.59,ESE,117,0.0,4.0,66,0.00,,,0.00,0.00,VWS V14.00,2013-06-07 10:32:00,
2013-06-07 04:37:00,55.6,44.4,30.60,ESE,117,2.0,3.0,66,0.00,,,0.00,0.00,VWS V14.00,2013-06-07 10:37:00,
2013-06-07 04:42:00,55.5,44.3,30.60,ESE,117,0.0,3.0,66,0.00,,,0.00,0.00,VWS V14.00,2013-06-07 10:42:00,
2013-06-07 04:47:00,55.4,44.2,30.61,ESE,117,0.0,4.0,66,0.00,,,0.00,0.00,VWS V14.00,2013-06-07 10:47:00,
2013-06-07 04:52:00,55.3,45.3,30.60,ESE,117,0.0,0.0,69,0.00,,,0.00,0.00,VWS V14.00,2013-06-07 10:52:00,
2013-06-07 04:57:00,55.1,45.1,30.60,ESE,117,0.0,0.0,69,0.00,,,0.00,0.00,VWS V14.00,2013-06-07 10:57:00,
2013-06-07 05:02:00,54.7,44.7,30.60,ESE,117,0.0,0.0,69,0.00,,,0.00,0.00,VWS V14.00,2013-06-07 11:02:00,
2013-06-07 05:07:00,54.2,44.3,30.60,ESE,117,0.0,0.0,69,0.00,,,0.00,0.00,VWS V14.00,2013-06-07 11:07:00,
2013-06-07 05:12:00,54.0,45.2,30.61,ESE,117,0.0,0.0,72,0.00,,,0.00,0.00,VWS V14.00,2013-06-07 11:12:00,
2013-06-07 05:17:00,53.6,44.4,30.60,ESE,117,0.0,0.0,71,0.00,,,0.00,0.00,VWS V14.00,2013-06-07 11:17:00,
2013-06-07 05:22:00,53.3,44.5,30.61,ESE,117,0.0,0.0,72,0.00,,,0.00,0.00,VWS V14.00,2013-06-07 11:22:00,
2013-06-07 05:27:00,53.1,44.0,30.61,ESE,117,0.0,0.0,71,0.00,,,0.00,0.00,VWS V14.00,2013-06-07 11:27:00,
2013-06-07 05:32:00,53.0,44.2,30.61,ESE,117,0.0,0.0,72,0.00,,,0.00,0.00,VWS V14.00,2013-06-07 11:32:00,
2013-06-07 05:37:00,53.0,44.2,30.62,ESE,117,0.0,0.0,72,0.00,,,0.00,0.00,VWS V14.00,2013-06-07 11:37:00,
2013-06-07 05:42:00,53.0,43.9,30.62,ESE,117,0.0,0.0,71,0.00,,,0.00,0.00,VWS V14.00,2013-06-07 11:42:00,
2013-06-07 05:47:00,53.1,44.3,30.62,ESE,117,0.0,1.0,72,0.00,,,0.00,0.00,VWS V14.00,2013-06-07 11:47:00,
2013-06-07 05:52:00,53.2,45.1,30.62,ESE,117,0.0,0.0,74,0.00,,,0.00,0.00,VWS V14.00,2013-06-07 11:52:00,
2013-06-07 05:57:00,53.2,45.1,30.63,ESE,117,0.0,1.0,74,0.00,,,0.00,0.00,VWS V14.00,2013-06-07 11:57:00,
2013-06-07 06:02:00,53.3,44.9,30.63,ESE,117,0.0,1.0,73,0.00,,,0.00,7.00,VWS V14.00,2013-06-07 12:02:00,
2013-06-07 06:07:00,53.3,44.9,30.63,ESE,117,0.0,0.0,73,0.00,,,0.00,16.00,VWS V14.00,2013-06-07 12:07:00,
2013-06-07 06:12:00,53.5,44.7,30.62,ESE,117,2.0,2.0,72,0.00,,,0.00,26.00,VWS V14.00,2013-06-07 12:12:00,
2013-06-07 06:17:00,53.8,45.4,30.63,ESE,117,0.0,3.0,73,0.00,,,0.00,32.00,VWS V14.00,2013-06-07 12:17:00,
2013-06-07 06:22:00,54.0,45.2,30.62,ESE,117,0.0,0.0,72,0.00,,,0.00,33.00,VWS V14.00,2013-06-07 12:22:00,
2013-06-07 06:27:00,54.3,44.7,30.62,ESE,117,0.0,1.0,70,0.00,,,0.00,33.00,VWS V14.00,2013-06-07 12:27:00,
2013-06-07 06:32:00,54.5,45.3,30.61,ESE,117,0.0,1.0,71,0.00,,,0.00,37.00,VWS V14.00,2013-06-07 12:32:00,
2013-06-07 06:37:00,54.6,44.7,30.61,ESE,117,0.0,0.0,69,0.00,,,0.00,40.00,VWS V14.00,2013-06-07 12:37:00,
2013-06-07 06:42:00,54.8,45.6,30.61,ESE,117,0.0,0.0,71,0.00,,,0.00,46.00,VWS V14.00,2013-06-07 12:42:00,
2013-06-07 06:47:00,54.9,47.1,30.62,ESE,117,0.0,0.0,75,0.00,,,0.00,49.00,VWS V14.00,2013-06-07 12:47:00,
2013-06-07 06:52:00,55.0,47.2,30.61,ESE,117,0.0,0.0,75,0.00,,,0.00,51.00,VWS V14.00,2013-06-07 12:52:00,
2013-06-07 06:57:00,55.0,48.3,30.61,ESE,117,0.0,0.0,78,0.00,,,0.00,49.00,VWS V14.00,2013-06-07 12:57:00,
2013-06-07 07:02:00,55.1,47.3,30.61,ESE,117,0.0,0.0,75,0.00,,,0.00,60.00,VWS V14.00,2013-06-07 13:02:00,
2013-06-07 07:07:00,55.1,47.3,30.63,ESE,117,0.0,0.0,75,0.00,,,0.00,62.00,VWS V14.00,2013-06-07 13:07:00,
2013-06-07 07:12:00,55.3,46.1,30.62,ESE,117,1.0,4.0,71,0.00,,,0.00,63.00,VWS V14.00,2013-06-07 13:12:00,
2013-06-07 07:17:00,55.6,47.5,30.62,ESE,117,0.0,4.0,74,0.00,,,0.00,100.00,VWS V14.00,2013-06-07 13:17:00,
2013-06-07 07:22:00,55.8,46.5,30.62,ESE,117,2.0,4.0,71,0.00,,,0.00,104.00,VWS V14.00,2013-06-07 13:22:00,
2013-06-07 07:27:00,56.2,46.9,30.63,ESE,117,0.0,4.0,71,0.00,,,0.00,125.00,VWS V14.00,2013-06-07 13:27:00,
2013-06-07 07:32:00,56.5,48.7,30.62,ESE,117,0.0,4.0,75,0.00,,,0.00,113.00,VWS V14.00,2013-06-07 13:32:00,
2013-06-07 07:37:00,56.8,48.2,30.62,ESE,117,0.0,0.0,73,0.00,,,0.00,121.00,VWS V14.00,2013-06-07 13:37:00,
2013-06-07 07:42:00,57.1,48.2,30.62,ESE,117,0.0,3.0,72,0.00,,,0.00,149.00,VWS V14.00,2013-06-07 13:42:00,
2013-06-07 07:47:00,57.6,47.9,30.62,SE,134,0.0,6.0,70,0.00,,,0.00,146.00,VWS V14.00,2013-06-07 13:47:00,
2013-06-07 07:52:00,58.0,48.3,30.62,SE,140,0.0,3.0,70,0.00,,,0.00,148.00,VWS V14.00,2013-06-07 13:52:00,
2013-06-07 07:57:00,58.5,48.4,30.61,SSE,149,0.0,6.0,69,0.00,,,0.00,158.00,VWS V14.00,2013-06-07 13:57:00,
2013-06-07 08:02:00,59.0,49.6,30.61,SSE,154,2.0,6.0,71,0.00,,,0.00,158.00,VWS V14.00,2013-06-07 14:02:00,
2013-06-07 08:07:00,59.2,48.3,30.61,SSE,155,0.0,0.0,67,0.00,,,0.00,123.00,VWS V14.00,2013-06-07 14:07:00,
2013-06-07 08:12:00,59.5,48.5,30.65,SSE,157,0.0,4.0,67,0.00,,,0.00,116.00,VWS V14.00,2013-06-07 14:12:00,
2013-06-07 08:17:00,59.7,49.1,30.64,SSE,156,0.0,4.0,68,0.00,,,0.00,123.00,VWS V14.00,2013-06-07 14:17:00,
2013-06-07 08:22:00,59.9,49.7,30.65,SSE,157,0.0,1.0,69,0.00,,,0.00,158.00,VWS V14.00,2013-06-07 14:22:00,
2013-06-07 08:27:00,60.1,49.9,30.65,SSE,156,0.0,4.0,69,0.00,,,0.00,137.00,VWS V14.00,2013-06-07 14:27:00,
2013-06-07 08:32:00,60.2,49.2,30.64,SSE,156,2.0,4.0,67,0.00,,,0.00,183.00,VWS V14.00,2013-06-07 14:32:00,
2013-06-07 08:37:00,60.4,50.2,30.65,SSE,157,0.0,0.0,69,0.00,,,0.00,148.00,VWS V14.00,2013-06-07 14:37:00,
2013-06-07 08:42:00,60.6,49.2,30.64,SSE,157,0.0,2.0,66,0.00,,,0.00,83.00,VWS V14.00,2013-06-07 14:42:00,
2013-06-07 08:47:00,60.7,49.7,30.64,SSE,157,0.0,2.0,67,0.00,,,0.00,91.00,VWS V14.00,2013-06-07 14:47:00,
2013-06-07 08:52:00,60.9,50.7,30.64,SSE,156,0.0,0.0,69,0.00,,,0.00,98.00,VWS V14.00,2013-06-07 14:52:00,
2013-06-07 08:57:00,60.9,50.7,30.64,SSE,156,0.0,0.0,69,0.00,,,0.00,113.00,VWS V14.00,2013-06-07 14:57:00,
2013-06-07 09:02:00,61.1,52.0,30.64,SSE,156,0.0,3.0,72,0.00,,,0.00,105.00,VWS V14.00,2013-06-07 15:02:00,
2013-06-07 09:07:00,61.1,52.4,30.64,SSE,157,0.0,0.0,73,0.00,,,0.00,98.00,VWS V14.00,2013-06-07 15:07:00,
2013-06-07 09:12:00,61.0,52.3,30.68,SSE,157,0.0,0.0,73,0.00,,,0.00,91.00,VWS V14.00,2013-06-07 15:12:00,
2013-06-07 09:17:00,60.9,52.2,30.68,SSE,157,0.0,0.0,73,0.00,,,0.00,88.00,VWS V14.00,2013-06-07 15:17:00,
2013-06-07 09:22:00,60.9,52.6,30.68,SSE,157,0.0,0.0,74,0.00,,,0.00,100.00,VWS V14.00,2013-06-07 15:22:00,
2013-06-07 09:27:00,60.8,52.5,30.68,SSE,157,0.0,0.0,74,0.00,,,0.00,137.00,VWS V14.00,2013-06-07 15:27:00,
2013-06-07 09:32:00,60.8,53.2,30.67,SSE,157,0.0,2.0,76,0.00,,,0.00,213.00,VWS V14.00,2013-06-07 15:32:00,
2013-06-07 09:37:00,60.9,52.9,30.67,SSE,156,0.0,0.0,75,0.00,,,0.00,250.00,VWS V14.00,2013-06-07 15:37:00,
2013-06-07 09:42:00,61.1,52.4,30.67,SSE,156,0.0,0.0,73,0.00,,,0.00,255.00,VWS V14.00,2013-06-07 15:42:00,
2013-06-07 09:47:00,61.3,51.8,30.68,SSE,157,0.0,1.0,71,0.00,,,0.00,334.00,VWS V14.00,2013-06-07 15:47:00,
2013-06-07 09:52:00,62.5,52.2,30.67,SSE,157,0.0,2.0,69,0.00,,,0.00,373.00,VWS V14.00,2013-06-07 15:52:00,
2013-06-07 09:57:00,63.2,51.7,30.66,SSE,157,0.0,5.0,66,0.00,,,0.00,229.00,VWS V14.00,2013-06-07 15:57:00,
2013-06-07 10:02:00,63.8,51.8,30.65,SSE,156,2.0,5.0,65,0.00,,,0.00,202.00,VWS V14.00,2013-06-07 16:02:00,
2013-06-07 10:07:00,64.0,52.4,30.67,SSE,157,0.0,0.0,66,0.00,,,0.00,190.00,VWS V14.00,2013-06-07 16:07:00,
2013-06-07 10:12:00,64.3,52.3,30.66,SSE,157,0.0,3.0,65,0.00,,,0.00,190.00,VWS V14.00,2013-06-07 16:12:00,
2013-06-07 10:17:00,64.4,51.5,30.66,SSE,157,0.0,3.0,63,0.00,,,0.00,167.00,VWS V14.00,2013-06-07 16:17:00,
2013-06-07 10:22:00,64.6,53.4,30.64,SSE,157,0.0,0.0,67,0.00,,,0.00,178.00,VWS V14.00,2013-06-07 16:22:00,
2013-06-07 10:27:00,64.9,54.1,30.64,SSE,157,0.0,1.0,68,0.00,,,0.00,172.00,VWS V14.00,2013-06-07 16:27:00,
2013-06-07 10:32:00,65.1,52.6,30.64,SSE,156,0.0,1.0,64,0.00,,,0.00,174.00,VWS V14.00,2013-06-07 16:32:00,
2013-06-07 10:37:00,65.3,54.9,30.64,WSW,242,0.0,0.0,69,0.00,,,0.00,183.00,VWS V14.00,2013-06-07 16:37:00,
2013-06-07 10:42:00,65.4,54.6,30.64,WSW,244,1.0,3.0,68,0.00,,,0.00,214.00,VWS V14.00,2013-06-07 16:42:00,
2013-06-07 10:47:00,65.4,54.6,30.64,WSW,242,0.0,3.0,68,0.00,,,0.00,176.00,VWS V14.00,2013-06-07 16:47:00,
2013-06-07 10:52:00,65.5,55.9,30.64,WSW,242,0.0,0.0,71,0.00,,,0.00,209.00,VWS V14.00,2013-06-07 16:52:00,
2013-06-07 10:57:00,65.8,56.9,30.63,WSW,242,0.0,0.0,73,0.00,,,0.00,288.00,VWS V14.00,2013-06-07 16:57:00,
2013-06-07 11:02:00,66.5,54.8,30.64,SSW,212,1.0,4.0,66,0.00,,,0.00,418.00,VWS V14.00,2013-06-07 17:02:00,
2013-06-07 11:07:00,67.4,55.2,30.63,South,190,4.0,4.0,65,0.00,,,0.00,336.00,VWS V14.00,2013-06-07 17:07:00,
2013-06-07 11:12:00,67.9,55.7,30.62,SE,141,3.0,5.0,65,0.00,,,0.00,608.00,VWS V14.00,2013-06-07 17:12:00,
2013-06-07 11:17:00,68.9,56.2,30.61,SE,142,0.0,6.0,64,0.00,,,0.00,821.00,VWS V14.00,2013-06-07 17:17:00,
2013-06-07 11:22:00,70.1,56.9,30.61,SE,146,0.0,5.0,63,0.00,,,0.00,775.00,VWS V14.00,2013-06-07 17:22:00,
2013-06-07 11:27:00,71.3,56.7,30.59,SE,131,5.0,9.0,60,0.00,,,0.00,701.00,VWS V14.00,2013-06-07 17:27:00,
2013-06-07 11:32:00,72.4,57.3,30.60,SSE,157,0.0,9.0,59,0.00,,,0.00,747.00,VWS V14.00,2013-06-07 17:32:00,
2013-06-07 11:37:00,73.4,51.4,30.59,SSE,155,2.0,11.0,46,0.00,,,0.00,448.00,VWS V14.00,2013-06-07 17:37:00,
2013-06-07 11:42:00,74.3,51.0,30.59,SSE,160,6.0,12.0,44,0.00,,,0.00,828.00,VWS V14.00,2013-06-07 17:42:00,
2013-06-07 11:47:00,75.1,52.9,30.57,South,170,3.0,12.0,46,0.00,,,0.00,661.00,VWS V14.00,2013-06-07 17:47:00,
2013-06-07 11:52:00,75.7,52.3,30.57,SSE,156,7.0,9.0,44,0.00,,,0.00,777.00,VWS V14.00,2013-06-07 17:52:00,
2013-06-07 11:57:00,76.3,50.9,30.57,SE,138,9.0,11.0,41,0.00,,,0.00,633.00,VWS V14.00,2013-06-07 17:57:00,
2013-06-07 12:02:00,76.6,51.2,30.57,SSE,159,4.0,11.0,41,0.00,,,0.00,714.00,VWS V14.00,2013-06-07 18:02:00,
2013-06-07 12:07:00,77.1,52.9,30.57,SSE,166,3.0,6.0,43,0.00,,,0.00,554.00,VWS V14.00,2013-06-07 18:07:00,
2013-06-07 12:13:00,77.1,50.3,30.57,South,177,3.0,11.0,39,0.00,,,0.00,527.00,VWS V14.00,2013-06-07 18:13:00,
2013-06-07 12:18:00,77.2,51.0,30.57,SSE,161,5.0,11.0,40,0.00,,,0.00,547.00,VWS V14.00,2013-06-07 18:18:00,
2013-06-07 12:23:00,77.3,50.4,30.57,South,183,5.0,7.0,39,0.00,,,0.00,503.00,VWS V14.00,2013-06-07 18:23:00,
2013-06-07 12:28:00,77.2,51.7,30.57,SSE,151,0.0,9.0,41,0.00,,,0.00,526.00,VWS V14.00,2013-06-07 18:28:00,
2013-06-07 12:33:00,77.2,48.9,30.57,SSE,165,0.0,10.0,37,0.00,,,0.00,577.00,VWS V14.00,2013-06-07 18:33:00,
2013-06-07 12:38:00,77.5,50.6,30.57,SSE,167,3.0,6.0,39,0.00,,,0.00,527.00,VWS V14.00,2013-06-07 18:38:00,
2013-06-07 12:43:00,77.8,51.6,30.56,SSE,155,4.0,6.0,40,0.00,,,0.00,459.00,VWS V14.00,2013-06-07 18:43:00,
2013-06-07 12:48:00,77.9,51.0,30.57,West,271,2.0,10.0,39,0.00,,,0.00,490.00,VWS V14.00,2013-06-07 18:48:00,
2013-06-07 12:53:00,78.0,50.4,30.56,WSW,238,2.0,11.0,38,0.00,,,0.00,606.00,VWS V14.00,2013-06-07 18:53:00,
2013-06-07 12:58:00,78.1,50.5,30.56,West,261,6.0,13.0,38,0.00,,,0.00,923.00,VWS V14.00,2013-06-07 18:58:00,
2013-06-07 13:03:00,78.2,49.8,30.56,WSW,258,6.0,14.0,37,0.00,,,0.00,482.00,VWS V14.00,2013-06-07 19:03:00,
2013-06-07 13:08:00,78.2,48.3,30.57,WSW,256,10.0,11.0,35,0.00,,,0.00,360.00,VWS V14.00,2013-06-07 19:08:00,
2013-06-07 13:14:00,77.7,47.9,30.57,West,272,5.0,17.0,35,0.00,,,0.00,332.00,VWS V14.00,2013-06-07 19:14:00,
2013-06-07 13:19:00,77.2,46.7,30.58,West,263,0.0,17.0,34,0.00,,,0.00,397.00,VWS V14.00,2013-06-07 19:19:00,
2013-06-07 13:24:00,77.2,49.7,30.57,West,272,16.0,16.0,38,0.00,,,0.00,691.00,VWS V14.00,2013-06-07 19:24:00,
2013-06-07 13:29:00,77.5,47.7,30.57,WSW,237,0.0,17.0,35,0.00,,,0.00,571.00,VWS V14.00,2013-06-07 19:29:00,
2013-06-07 13:34:00,77.8,44.8,30.57,West,267,3.0,18.0,31,0.00,,,0.00,478.00,VWS V14.00,2013-06-07 19:34:00,
2013-06-07 13:39:00,77.9,48.1,30.57,West,276,9.0,11.0,35,0.00,,,0.00,438.00,VWS V14.00,2013-06-07 19:39:00,
2013-06-07 13:44:00,78.0,49.7,30.56,South,184,5.0,11.0,37,0.00,,,0.00,441.00,VWS V14.00,2013-06-07 19:44:00,
2013-06-07 13:49:00,78.1,50.5,30.57,SSE,164,1.0,11.0,38,0.00,,,0.00,494.00,VWS V14.00,2013-06-07 19:49:00,
2013-06-07 13:55:00,78.1,49.0,30.56,South,171,2.0,9.0,36,0.00,,,0.00,350.00,VWS V14.00,2013-06-07 19:55:00,
2013-06-07 14:00:00,77.9,48.1,30.56,South,187,0.0,11.0,35,0.00,,,0.00,343.00,VWS V14.00,2013-06-07 20:00:00,
2013-06-07 14:05:00,77.9,48.1,30.56,SSW,193,0.0,11.0,35,0.00,,,0.00,373.00,VWS V14.00,2013-06-07 20:05:00,
2013-06-07 14:10:00,77.8,48.0,30.56,South,176,5.0,10.0,35,0.00,,,0.00,355.00,VWS V14.00,2013-06-07 20:10:00,
2013-06-07 14:15:00,77.8,47.2,30.55,South,179,10.0,10.0,34,0.00,,,0.00,415.00,VWS V14.00,2013-06-07 20:15:00,
2013-06-07 14:20:00,77.8,46.4,30.55,South,173,2.0,10.0,33,0.00,,,0.00,399.00,VWS V14.00,2013-06-07 20:20:00,
2013-06-07 14:25:00,77.9,48.8,30.56,West,264,4.0,10.0,36,0.00,,,0.00,425.00,VWS V14.00,2013-06-07 20:25:00,
2013-06-07 14:30:00,77.9,48.1,30.56,South,182,0.0,10.0,35,0.00,,,0.00,429.00,VWS V14.00,2013-06-07 20:30:00,
2013-06-07 14:35:00,78.1,46.7,30.55,SSE,155,4.0,10.0,33,0.00,,,0.00,336.00,VWS V14.00,2013-06-07 20:35:00,
2013-06-07 14:40:00,78.2,47.6,30.55,West,273,2.0,10.0,34,0.00,,,0.00,271.00,VWS V14.00,2013-06-07 20:40:00,
2013-06-07 14:45:00,78.0,46.6,30.55,SSW,205,0.0,10.0,33,0.00,,,0.00,294.00,VWS V14.00,2013-06-07 20:45:00,
2013-06-07 14:50:00,77.8,46.4,30.55,SSE,148,0.0,10.0,33,0.00,,,0.00,320.00,VWS V14.00,2013-06-07 20:50:00,
2013-06-07 14:55:00,77.8,48.7,30.54,WNW,288,8.0,9.0,36,0.00,,,0.00,309.00,VWS V14.00,2013-06-07 20:55:00,
2013-06-07 15:00:00,77.6,48.6,30.54,South,170,0.0,11.0,36,0.00,,,0.00,357.00,VWS V14.00,2013-06-07 21:00:00,
2013-06-07 15:05:00,77.7,51.5,30.54,West,259,3.0,11.0,40,0.00,,,0.00,406.00,VWS V14.00,2013-06-07 21:05:00,
2013-06-07 15:10:00,77.6,48.6,30.55,WNW,283,6.0,11.0,36,0.00,,,0.00,373.00,VWS V14.00,2013-06-07 21:10:00,
2013-06-07 15:16:00,77.5,51.3,30.55,West,270,0.0,12.0,40,0.00,,,0.00,366.00,VWS V14.00,2013-06-07 21:16:00,
2013-06-07 15:21:00,77.5,47.0,30.55,West,263,0.0,12.0,34,0.00,,,0.00,339.00,VWS V14.00,2013-06-07 21:21:00,
2013-06-07 15:27:00,77.6,49.3,30.54,SW,218,3.0,9.0,37,0.00,,,0.00,364.00,VWS V14.00,2013-06-07 21:27:00,
2013-06-07 15:32:00,77.6,50.7,30.54,West,264,5.0,13.0,39,0.00,,,0.00,418.00,VWS V14.00,2013-06-07 21:32:00,
2013-06-07 15:37:00,77.5,49.2,30.54,West,266,3.0,10.0,37,0.00,,,0.00,510.00,VWS V14.00,2013-06-07 21:37:00,
2013-06-07 15:42:00,77.8,47.2,30.54,WSW,244,6.0,16.0,34,0.00,,,0.00,429.00,VWS V14.00,2013-06-07 21:42:00,
2013-06-07 15:47:00,78.0,48.9,30.53,WNW,291,0.0,16.0,36,0.00,,,0.00,531.00,VWS V14.00,2013-06-07 21:47:00,
2013-06-07 15:52:00,78.3,49.9,30.53,West,274,7.0,12.0,37,0.00,,,0.00,352.00,VWS V14.00,2013-06-07 21:52:00,
2013-06-07 15:57:00,78.1,49.0,30.53,WSW,245,5.0,14.0,36,0.00,,,0.00,404.00,VWS V14.00,2013-06-07 21:57:00,
2013-06-07 16:02:00,77.9,48.1,30.53,West,276,1.0,15.0,35,0.00,,,0.00,434.00,VWS V14.00,2013-06-07 22:02:00,
2013-06-07 16:07:00,77.9,48.8,30.53,WSW,258,6.0,10.0,36,0.00,,,0.00,417.00,VWS V14.00,2013-06-07 22:07:00,
2013-06-07 16:12:00,77.9,48.1,30.53,SW,226,6.0,12.0,35,0.00,,,0.00,399.00,VWS V14.00,2013-06-07 22:12:00,
2013-06-07 16:17:00,77.9,48.8,30.53,West,281,9.0,13.0,36,0.00,,,0.00,334.00,VWS V14.00,2013-06-07 22:17:00,
2013-06-07 16:22:00,77.7,47.9,30.53,WNW,290,8.0,10.0,35,0.00,,,0.00,318.00,VWS V14.00,2013-06-07 22:22:00,
2013-06-07 16:27:00,77.5,49.2,30.52,WNW,284,11.0,12.0,37,0.00,,,0.00,274.00,VWS V14.00,2013-06-07 22:27:00,
2013-06-07 16:32:00,77.5,48.5,30.53,SSE,163,0.0,12.0,36,0.00,,,0.00,230.00,VWS V14.00,2013-06-07 22:32:00,
2013-06-07 16:37:00,77.4,49.1,30.53,West,276,0.0,2.0,37,0.00,,,0.00,260.00,VWS V14.00,2013-06-07 22:37:00,
2013-06-07 16:42:00,77.4,49.1,30.53,West,271,6.0,16.0,37,0.00,,,0.00,234.00,VWS V14.00,2013-06-07 22:42:00,
2013-06-07 16:48:00,77.4,48.4,30.54,SW,232,6.0,16.0,36,0.00,,,0.00,213.00,VWS V14.00,2013-06-07 22:48:00,
2013-06-07 16:53:00,77.2,47.5,30.54,West,264,2.0,5.0,35,0.00,,,0.00,213.00,VWS V14.00,2013-06-07 22:53:00,
2013-06-07 16:58:00,77.2,48.2,30.54,West,275,9.0,14.0,36,0.00,,,0.00,229.00,VWS V14.00,2013-06-07 22:58:00,
2013-06-07 17:03:00,77.1,48.8,30.53,West,281,6.0,14.0,37,0.00,,,0.00,169.00,VWS V14.00,2013-06-07 23:03:00,
2013-06-07 17:08:00,77.0,48.0,30.54,WSW,245,0.0,10.0,36,0.00,,,0.00,204.00,VWS V14.00,2013-06-07 23:08:00,
2013-06-07 17:13:00,76.9,50.1,30.54,West,281,0.0,10.0,39,0.00,,,0.00,178.00,VWS V14.00,2013-06-07 23:13:00,
2013-06-07 17:18:00,76.9,49.4,30.53,WNW,287,7.0,10.0,38,0.00,,,0.00,269.00,VWS V14.00,2013-06-07 23:18:00,
2013-06-07 17:23:00,77.1,50.3,30.53,West,275,5.0,5.0,39,0.00,,,0.00,304.00,VWS V14.00,2013-06-07 23:23:00,
2013-06-07 17:28:00,77.6,51.4,30.53,SW,235,0.0,6.0,40,0.00,,,0.00,740.00,VWS V14.00,2013-06-07 23:28:00,
2013-06-07 17:33:00,78.7,51.7,30.52,WSW,252,12.0,14.0,39,0.00,,,0.00,796.00,VWS V14.00,2013-06-07 23:33:00,
2013-06-07 17:38:00,79.7,50.4,30.52,SSE,157,3.0,9.0,36,0.00,,,0.00,795.00,VWS V14.00,2013-06-07 23:38:00,
2013-06-07 17:43:00,80.5,48.8,30.51,SW,230,6.0,15.0,33,0.00,,,0.00,795.00,VWS V14.00,2013-06-07 23:43:00,
2013-06-07 17:48:00,81.0,50.0,30.51,WSW,257,1.0,15.0,34,0.00,,,0.00,712.00,VWS V14.00,2013-06-07 23:48:00,
2013-06-07 17:54:00,81.3,48.7,30.51,WNW,291,6.0,9.0,32,0.00,,,0.00,707.00,VWS V14.00,2013-06-07 23:54:00,
2013-06-07 17:59:00,81.4,51.2,30.51,West,271,3.0,13.0,35,0.00,,,0.00,677.00,VWS V14.00,2013-06-07 23:59:00,
2013-06-07 18:04:00,81.6,50.5,30.51,West,265,13.0,15.0,34,0.00,,,0.00,663.00,VWS V14.00,2013-06-08 00:04:00,
2013-06-07 18:09:00,81.4,48.7,30.50,WNW,284,12.0,12.0,32,0.00,,,0.00,642.00,VWS V14.00,2013-06-08 00:09:00,
2013-06-07 18:14:00,81.3,49.5,30.50,SSW,210,4.0,12.0,33,0.00,,,0.00,598.00,VWS V14.00,2013-06-08 00:14:00,
2013-06-07 18:19:00,81.3,51.1,30.50,WNW,302,7.0,12.0,35,0.00,,,0.00,592.00,VWS V14.00,2013-06-08 00:19:00,
2013-06-07 18:24:00,81.2,50.2,30.50,WNW,287,6.0,10.0,34,0.00,,,0.00,561.00,VWS V14.00,2013-06-08 00:24:00,
2013-06-07 18:30:00,80.9,50.7,30.50,WNW,292,0.0,11.0,35,0.00,,,0.00,541.00,VWS V14.00,2013-06-08 00:30:00,
2013-06-07 18:35:00,80.4,51.8,30.50,NW,310,5.0,11.0,37,0.00,,,0.00,529.00,VWS V14.00,2013-06-08 00:35:00,
2013-06-07 18:40:00,80.1,50.0,30.50,NNW,329,2.0,7.0,35,0.00,,,0.00,490.00,VWS V14.00,2013-06-08 00:40:00,
2013-06-07 18:45:00,80.0,49.1,30.51,West,269,2.0,7.0,34,0.00,,,0.00,497.00,VWS V14.00,2013-06-08 00:45:00,
2013-06-07 18:50:00,79.8,49.0,30.51,WNW,292,1.0,7.0,34,0.00,,,0.00,455.00,VWS V14.00,2013-06-08 00:50:00,
2013-06-07 18:55:00,79.7,51.9,30.51,WNW,298,5.0,11.0,38,0.00,,,0.00,422.00,VWS V14.00,2013-06-08 00:55:00,
2013-06-07 19:00:00,79.2,50.7,30.51,NW,311,10.0,11.0,37,0.00,,,0.00,457.00,VWS V14.00,2013-06-08 01:00:00,
2013-06-07 19:05:00,78.5,52.2,30.51,West,268,2.0,12.0,40,0.00,,,0.00,429.00,VWS V14.00,2013-06-08 01:05:00,
2013-06-07 19:10:00,78.2,50.5,30.50,NW,304,3.0,6.0,38,0.00,,,0.00,413.00,VWS V14.00,2013-06-08 01:10:00,
2013-06-07 19:15:00,77.7,50.1,30.50,WNW,290,10.0,11.0,38,0.00,,,0.00,151.00,VWS V14.00,2013-06-08 01:15:00,
2013-06-07 19:20:00,76.9,49.4,30.50,West,271,7.0,12.0,38,0.00,,,0.00,141.00,VWS V14.00,2013-06-08 01:20:00,
2013-06-07 19:25:00,76.2,49.5,30.51,NW,314,5.0,11.0,39,0.00,,,0.00,362.00,VWS V14.00,2013-06-08 01:25:00,
2013-06-07 19:31:00,76.2,50.1,30.51,NW,317,9.0,12.0,40,0.00,,,0.00,339.00,VWS V14.00,2013-06-08 01:31:00,
2013-06-07 19:36:00,76.4,51.0,30.51,NNW,333,6.0,12.0,41,0.00,,,0.00,323.00,VWS V14.00,2013-06-08 01:36:00,
2013-06-07 19:41:00,76.5,51.1,30.51,NW,318,3.0,11.0,41,0.00,,,0.00,316.00,VWS V14.00,2013-06-08 01:41:00,
2013-06-07 19:46:00,76.5,51.1,30.50,NW,315,1.0,11.0,41,0.00,,,0.00,281.00,VWS V14.00,2013-06-08 01:46:00,
2013-06-07 19:51:00,76.3,48.8,30.52,WNW,292,5.0,13.0,38,0.00,,,0.00,272.00,VWS V14.00,2013-06-08 01:51:00,
2013-06-07 19:56:00,75.8,49.1,30.51,WNW,295,4.0,11.0,39,0.00,,,0.00,109.00,VWS V14.00,2013-06-08 01:56:00,
2013-06-07 20:01:00,75.1,49.8,30.52,WNW,301,1.0,11.0,41,0.00,,,0.00,197.00,VWS V14.00,2013-06-08 02:01:00,
2013-06-07 20:06:00,74.6,49.4,30.52,NW,319,3.0,11.0,41,0.00,,,0.00,148.00,VWS V14.00,2013-06-08 02:06:00,
2013-06-07 20:11:00,74.1,48.9,30.52,NW,311,4.0,7.0,41,0.00,,,0.00,86.00,VWS V14.00,2013-06-08 02:11:00,
2013-06-07 20:16:00,73.8,48.7,30.52,WNW,290,3.0,10.0,41,0.00,,,0.00,81.00,VWS V14.00,2013-06-08 02:16:00,
2013-06-07 20:21:00,73.5,48.4,30.52,WNW,295,4.0,10.0,41,0.00,,,0.00,90.00,VWS V14.00,2013-06-08 02:21:00,
2013-06-07 20:26:00,73.2,47.5,30.53,WNW,291,6.0,9.0,40,0.00,,,0.00,125.00,VWS V14.00,2013-06-08 02:26:00,
2013-06-07 20:31:00,72.9,47.8,30.52,WNW,292,0.0,9.0,41,0.00,,,0.00,77.00,VWS V14.00,2013-06-08 02:31:00,
2013-06-07 20:36:00,72.7,47.7,30.53,WSW,254,4.0,9.0,41,0.00,,,0.00,42.00,VWS V14.00,2013-06-08 02:36:00,
2013-06-07 20:42:00,72.3,48.0,30.54,SSE,153,1.0,10.0,42,0.00,,,0.00,40.00,VWS V14.00,2013-06-08 02:42:00,
2013-06-07 20:47:00,72.1,47.1,30.55,North,360,0.0,10.0,41,0.00,,,0.00,26.00,VWS V14.00,2013-06-08 02:47:00,
2013-06-07 20:52:00,72.0,48.3,30.55,North,360,0.0,4.0,43,0.00,,,0.00,28.00,VWS V14.00,2013-06-08 02:52:00,
2013-06-07 20:57:00,71.7,48.0,30.55,NW,304,3.0,7.0,43,0.00,,,0.00,23.00,VWS V14.00,2013-06-08 02:57:00,
2013-06-07 21:02:00,71.2,47.6,30.56,NNW,327,5.0,8.0,43,0.00,,,0.00,18.00,VWS V14.00,2013-06-08 03:02:00,
2013-06-07 21:07:00,70.9,48.5,30.54,NNW,328,0.0,1.0,45,0.00,,,0.00,16.00,VWS V14.00,2013-06-08 03:07:00,
2013-06-07 21:12:00,70.4,46.9,30.55,NNW,338,0.0,7.0,43,0.00,,,0.00,12.00,VWS V14.00,2013-06-08 03:12:00,
2013-06-07 21:17:00,70.2,46.7,30.55,NNW,334,0.0,7.0,43,0.00,,,0.00,9.00,VWS V14.00,2013-06-08 03:17:00,
2013-06-07 21:22:00,70.0,46.5,30.55,NNW,333,2.0,4.0,43,0.00,,,0.00,0.00,VWS V14.00,2013-06-08 03:22:00,
2013-06-07 21:28:00,69.9,45.8,30.55,NW,315,7.0,14.0,42,0.00,,,0.00,0.00,VWS V14.00,2013-06-08 03:28:00,
2013-06-07 21:33:00,70.4,45.6,30.55,North,350,4.0,16.0,41,0.00,,,0.00,0.00,VWS V14.00,2013-06-08 03:33:00,
2013-06-07 21:38:00,70.6,47.0,30.55,North,360,6.0,6.0,43,0.00,,,0.00,0.00,VWS V14.00,2013-06-08 03:38:00,
2013-06-07 21:43:00,70.4,46.2,30.55,NE,38,0.0,6.0,42,0.00,,,0.00,0.00,VWS V14.00,2013-06-08 03:43:00,
2013-06-07 21:48:00,70.3,46.8,30.55,NNW,340,6.0,6.0,43,0.00,,,0.00,0.00,VWS V14.00,2013-06-08 03:48:00,
2013-06-07 21:53:00,70.1,47.8,30.55,NNW,341,0.0,1.0,45,0.00,,,0.00,0.00,VWS V14.00,2013-06-08 03:53:00,
2013-06-07 21:58:00,69.9,47.6,30.55,NNW,341,0.0,1.0,45,0.00,,,0.00,0.00,VWS V14.00,2013-06-08 03:58:00,
2013-06-07 22:01:00,69.8,48.1,30.55,NNW,341,0.0,1.0,46,0.00,,,0.00,0.00,VWS V14.00,2013-06-08 04:01:00,
2013-06-07 22:02:00,69.7,47.4,30.55,NNW,341,0.0,1.0,45,0.00,,,0.00,0.00,VWS V14.00,2013-06-08 04:02:00,
2013-06-07 22:07:00,69.3,46.5,30.55,NNW,342,0.0,2.0,44,0.00,,,0.00,0.00,VWS V14.00,2013-06-08 04:07:00,
2013-06-07 22:12:00,69.1,48.6,30.55,South,184,0.0,4.0,48,0.00,,,0.00,0.00,VWS V14.00,2013-06-08 04:12:00,
2013-06-07 22:17:00,68.8,47.2,30.56,West,266,0.0,6.0,46,0.00,,,0.00,0.00,VWS V14.00,2013-06-08 04:17:00,
2013-06-07 22:22:00,68.7,46.5,30.55,NNW,333,0.0,2.0,45,0.00,,,0.00,0.00,VWS V14.00,2013-06-08 04:22:00,
2013-06-07 22:27:00,68.7,47.1,30.56,West,267,0.0,11.0,46,0.00,,,0.00,0.00,VWS V14.00,2013-06-08 04:27:00,
2013-06-07 22:32:00,68.6,45.8,30.56,NW,309,0.0,11.0,44,0.00,,,0.00,0.00,VWS V14.00,2013-06-08 04:32:00,
2013-06-07 22:37:00,68.7,44.1,30.56,WSW,257,2.0,7.0,41,0.00,,,0.00,0.00,VWS V14.00,2013-06-08 04:37:00,
2013-06-07 22:42:00,68.8,44.2,30.56,WSW,257,0.0,7.0,41,0.00,,,0.00,0.00,VWS V14.00,2013-06-08 04:42:00,
2013-06-07 22:47:00,69.0,45.6,30.56,NE,42,6.0,13.0,43,0.00,,,0.00,0.00,VWS V14.00,2013-06-08 04:47:00,
2013-06-07 22:52:00,69.3,44.0,30.56,WNW,303,10.0,11.0,40,0.00,,,0.00,0.00,VWS V14.00,2013-06-08 04:52:00,
2013-06-07 22:57:00,69.5,45.4,30.57,North,355,2.0,14.0,42,0.00,,,0.00,0.00,VWS V14.00,2013-06-08 04:57:00,
2013-06-07 23:02:00,69.4,45.3,30.57,North,350,2.0,14.0,42,0.00,,,0.00,0.00,VWS V14.00,2013-06-08 05:02:00,
2013-06-07 23:07:00,69.1,43.8,30.57,NNW,342,4.0,8.0,40,0.00,,,0.00,0.00,VWS V14.00,2013-06-08 05:07:00,
2013-06-07 23:12:00,69.1,44.4,30.53,North,360,0.0,13.0,41,0.00,,,0.00,0.00,VWS V14.00,2013-06-08 05:12:00,
2013-06-07 23:17:00,69.1,44.4,30.53,North,360,0.0,13.0,41,0.00,,,0.00,0.00,VWS V14.00,2013-06-08 05:17:00,
2013-06-07 23:22:00,69.0,44.3,30.53,NW,308,4.0,7.0,41,0.00,,,0.00,0.00,VWS V14.00,2013-06-08 05:22:00,
2013-06-07 23:27:00,68.9,44.2,30.53,NNW,344,4.0,9.0,41,0.00,,,0.00,0.00,VWS V14.00,2013-06-08 05:27:00,
2013-06-07 23:32:00,69.0,43.7,30.53,ENE,57,0.0,10.0,40,0.00,,,0.00,0.00,VWS V14.00,2013-06-08 05:32:00,
2013-06-07 23:37:00,69.1,43.1,30.53,WNW,299,0.0,0.0,39,0.00,,,0.00,0.00,VWS V14.00,2013-06-08 05:37:00,
2013-06-07 23:42:00,69.1,42.5,30.53,WNW,299,0.0,1.0,38,0.00,,,0.00,0.00,VWS V14.00,2013-06-08 05:42:00,
2013-06-07 23:47:00,69.1,42.5,30.54,SSW,196,0.0,1.0,38,0.00,,,0.00,0.00,VWS V14.00,2013-06-08 05:47:00,
2013-06-07 23:52:00,69.1,43.8,30.53,SSW,196,0.0,0.0,40,0.00,,,0.00,0.00,VWS V14.00,2013-06-08 05:52:00,
2013-06-07 23:57:00,69.0,44.3,30.54,South,188,5.0,5.0,41,0.00,,,0.00,0.00,VWS V14.00,2013-06-08 05:57:00,